sensor_id;sensor_type;location;lat;lon;timestamp;P1;durP1;ratioP1;P2;durP2;ratioP2
41623;SDS011;27319;50.306;18.926;2023-03-01T00:03:57;180.57;;;75.25;;
41623;SDS011;27319;50.306;18.926;2023-03-01T00:07:57;166.32;;;74.53;;
41623;SDS011;27319;50.306;18.926;2023-03-01T00:11:02;173.60;;;74.28;;
41623;SDS011;27319;50.306;18.926;2023-03-01T00:14:21;168.35;;;72.05;;
41623;SDS011;27319;50.306;18.926;2023-03-01T00:17:21;168.80;;;68.45;;
41623;SDS011;27319;50.306;18.926;2023-03-01T00:20:23;153.18;;;62.38;;
41623;SDS011;27319;50.306;18.926;2023-03-01T00:23:24;135.25;;;63.22;;
41623;SDS011;27319;50.306;18.926;2023-03-01T00:26:25;139.23;;;59.38;;
41623;SDS011;27319;50.306;18.926;2023-03-01T00:29:26;130.98;;;58.95;;
41623;SDS011;27319;50.306;18.926;2023-03-01T00:33:27;138.25;;;58.75;;
41623;SDS011;27319;50.306;18.926;2023-03-01T00:36:44;128.75;;;58.63;;
41623;SDS011;27319;50.306;18.926;2023-03-01T00:40:45;131.90;;;55.80;;
41623;SDS011;27319;50.306;18.926;2023-03-01T00:44:46;129.65;;;55.38;;
41623;SDS011;27319;50.306;18.926;2023-03-01T00:48:47;124.85;;;54.33;;
41623;SDS011;27319;50.306;18.926;2023-03-01T00:52:51;126.28;;;55.00;;
41623;SDS011;27319;50.306;18.926;2023-03-01T00:56:48;121.93;;;54.60;;
41623;SDS011;27319;50.306;18.926;2023-03-01T01:00:49;126.00;;;56.35;;
41623;SDS011;27319;50.306;18.926;2023-03-01T01:04:50;134.15;;;55.35;;
41623;SDS011;27319;50.306;18.926;2023-03-01T01:08:51;152.75;;;60.83;;
41623;SDS011;27319;50.306;18.926;2023-03-01T01:12:54;160.20;;;59.13;;
41623;SDS011;27319;50.306;18.926;2023-03-01T01:16:04;139.82;;;58.95;;
41623;SDS011;27319;50.306;18.926;2023-03-01T01:20:04;140.68;;;58.53;;
41623;SDS011;27319;50.306;18.926;2023-03-01T01:24:06;156.65;;;60.58;;
41623;SDS011;27319;50.306;18.926;2023-03-01T01:28:06;132.52;;;57.47;;
41623;SDS011;27319;50.306;18.926;2023-03-01T01:32:07;130.82;;;56.45;;
41623;SDS011;27319;50.306;18.926;2023-03-01T01:36:08;126.85;;;55.08;;
41623;SDS011;27319;50.306;18.926;2023-03-01T01:40:09;135.80;;;56.17;;
41623;SDS011;27319;50.306;18.926;2023-03-01T01:51:43;122.97;;;49.50;;
41623;SDS011;27319;50.306;18.926;2023-03-01T01:55:32;120.18;;;52.90;;
41623;SDS011;27319;50.306;18.926;2023-03-01T01:59:33;127.43;;;53.88;;
41623;SDS011;27319;50.306;18.926;2023-03-01T02:03:34;115.80;;;48.90;;
41623;SDS011;27319;50.306;18.926;2023-03-01T02:07:34;136.38;;;54.95;;
41623;SDS011;27319;50.306;18.926;2023-03-01T02:10:43;128.80;;;55.57;;
41623;SDS011;27319;50.306;18.926;2023-03-01T02:14:44;130.77;;;56.88;;
41623;SDS011;27319;50.306;18.926;2023-03-01T02:18:45;128.52;;;53.80;;
41623;SDS011;27319;50.306;18.926;2023-03-01T02:22:46;124.68;;;56.85;;
41623;SDS011;27319;50.306;18.926;2023-03-01T02:26:51;135.40;;;59.05;;
41623;SDS011;27319;50.306;18.926;2023-03-01T02:30:50;125.78;;;53.38;;
41623;SDS011;27319;50.306;18.926;2023-03-01T02:35:03;128.00;;;56.97;;
41623;SDS011;27319;50.306;18.926;2023-03-01T02:39:05;126.20;;;53.25;;
41623;SDS011;27319;50.306;18.926;2023-03-01T02:43:05;108.75;;;49.17;;
41623;SDS011;27319;50.306;18.926;2023-03-01T02:47:06;115.05;;;48.35;;
41623;SDS011;27319;50.306;18.926;2023-03-01T02:54:28;100.65;;;46.60;;
41623;SDS011;27319;50.306;18.926;2023-03-01T02:58:30;103.05;;;47.25;;
41623;SDS011;27319;50.306;18.926;2023-03-01T03:02:31;117.53;;;51.25;;
41623;SDS011;27319;50.306;18.926;2023-03-01T03:05:38;123.85;;;54.58;;
41623;SDS011;27319;50.306;18.926;2023-03-01T03:08:39;111.68;;;52.08;;
41623;SDS011;27319;50.306;18.926;2023-03-01T03:11:43;116.20;;;52.13;;
41623;SDS011;27319;50.306;18.926;2023-03-01T03:14:44;99.15;;;48.97;;
41623;SDS011;27319;50.306;18.926;2023-03-01T03:17:45;103.63;;;48.08;;
41623;SDS011;27319;50.306;18.926;2023-03-01T03:21:48;101.07;;;43.58;;
41623;SDS011;27319;50.306;18.926;2023-03-01T03:25:49;102.07;;;43.60;;
41623;SDS011;27319;50.306;18.926;2023-03-01T03:29:50;103.35;;;44.50;;
41623;SDS011;27319;50.306;18.926;2023-03-01T03:33:51;105.97;;;45.55;;
41623;SDS011;27319;50.306;18.926;2023-03-01T03:36:55;105.07;;;47.45;;
41623;SDS011;27319;50.306;18.926;2023-03-01T03:40:03;100.90;;;44.45;;
41623;SDS011;27319;50.306;18.926;2023-03-01T03:43:05;98.30;;;44.15;;
41623;SDS011;27319;50.306;18.926;2023-03-01T03:46:08;94.75;;;44.22;;
41623;SDS011;27319;50.306;18.926;2023-03-01T03:49:09;104.53;;;44.90;;
41623;SDS011;27319;50.306;18.926;2023-03-01T03:53:12;100.55;;;42.47;;
41623;SDS011;27319;50.306;18.926;2023-03-01T03:57:11;104.07;;;43.92;;
41623;SDS011;27319;50.306;18.926;2023-03-01T04:00:12;97.75;;;45.28;;
41623;SDS011;27319;50.306;18.926;2023-03-01T04:03:14;99.43;;;46.00;;
41623;SDS011;27319;50.306;18.926;2023-03-01T04:06:17;96.70;;;43.33;;
41623;SDS011;27319;50.306;18.926;2023-03-01T04:10:18;90.22;;;40.47;;
41623;SDS011;27319;50.306;18.926;2023-03-01T04:14:18;95.03;;;41.65;;
41623;SDS011;27319;50.306;18.926;2023-03-01T04:18:20;103.60;;;41.80;;
41623;SDS011;27319;50.306;18.926;2023-03-01T04:22:20;103.25;;;43.10;;
41623;SDS011;27319;50.306;18.926;2023-03-01T04:26:33;102.55;;;42.22;;
41623;SDS011;27319;50.306;18.926;2023-03-01T04:30:35;91.88;;;41.00;;
41623;SDS011;27319;50.306;18.926;2023-03-01T04:34:35;87.53;;;41.00;;
41623;SDS011;27319;50.306;18.926;2023-03-01T04:37:36;88.43;;;41.03;;
41623;SDS011;27319;50.306;18.926;2023-03-01T04:40:37;90.65;;;42.00;;
41623;SDS011;27319;50.306;18.926;2023-03-01T04:43:38;91.63;;;41.63;;
41623;SDS011;27319;50.306;18.926;2023-03-01T04:46:39;90.75;;;42.85;;
41623;SDS011;27319;50.306;18.926;2023-03-01T04:49:40;101.85;;;43.17;;
41623;SDS011;27319;50.306;18.926;2023-03-01T04:52:41;94.55;;;43.50;;
41623;SDS011;27319;50.306;18.926;2023-03-01T04:55:43;92.68;;;45.95;;
41623;SDS011;27319;50.306;18.926;2023-03-01T04:58:44;94.57;;;43.78;;
41623;SDS011;27319;50.306;18.926;2023-03-01T05:02:49;100.70;;;45.83;;
41623;SDS011;27319;50.306;18.926;2023-03-01T05:06:46;97.50;;;45.50;;
41623;SDS011;27319;50.306;18.926;2023-03-01T05:09:47;103.60;;;50.00;;
41623;SDS011;27319;50.306;18.926;2023-03-01T05:12:49;103.05;;;46.00;;
41623;SDS011;27319;50.306;18.926;2023-03-01T05:16:49;100.10;;;46.08;;
41623;SDS011;27319;50.306;18.926;2023-03-01T05:20:50;104.32;;;46.00;;
41623;SDS011;27319;50.306;18.926;2023-03-01T05:24:51;118.20;;;52.45;;
41623;SDS011;27319;50.306;18.926;2023-03-01T05:28:52;113.75;;;51.50;;
41623;SDS011;27319;50.306;18.926;2023-03-01T05:32:53;109.70;;;52.95;;
41623;SDS011;27319;50.306;18.926;2023-03-01T05:36:53;107.75;;;50.65;;
41623;SDS011;27319;50.306;18.926;2023-03-01T05:39:54;115.15;;;50.25;;
41623;SDS011;27319;50.306;18.926;2023-03-01T05:42:56;104.38;;;48.88;;
41623;SDS011;27319;50.306;18.926;2023-03-01T05:45:57;102.80;;;48.20;;
41623;SDS011;27319;50.306;18.926;2023-03-01T05:49:58;107.30;;;48.08;;
41623;SDS011;27319;50.306;18.926;2023-03-01T05:54:02;99.22;;;45.97;;
41623;SDS011;27319;50.306;18.926;2023-03-01T05:58:03;100.82;;;48.20;;
41623;SDS011;27319;50.306;18.926;2023-03-01T06:02:03;97.40;;;46.90;;
41623;SDS011;27319;50.306;18.926;2023-03-01T06:06:04;104.43;;;49.40;;
41623;SDS011;27319;50.306;18.926;2023-03-01T06:09:11;105.03;;;51.88;;
41623;SDS011;27319;50.306;18.926;2023-03-01T06:13:12;106.00;;;50.72;;
41623;SDS011;27319;50.306;18.926;2023-03-01T06:17:13;101.20;;;49.25;;
41623;SDS011;27319;50.306;18.926;2023-03-01T06:21:13;96.85;;;45.85;;
41623;SDS011;27319;50.306;18.926;2023-03-01T06:25:15;104.32;;;47.50;;
41623;SDS011;27319;50.306;18.926;2023-03-01T06:29:15;102.43;;;46.47;;
41623;SDS011;27319;50.306;18.926;2023-03-01T06:33:15;103.50;;;49.03;;
41623;SDS011;27319;50.306;18.926;2023-03-01T06:37:04;103.82;;;49.53;;
41623;SDS011;27319;50.306;18.926;2023-03-01T06:40:06;112.63;;;54.53;;
41623;SDS011;27319;50.306;18.926;2023-03-01T06:44:06;112.75;;;49.03;;
41623;SDS011;27319;50.306;18.926;2023-03-01T06:48:07;95.43;;;44.63;;
41623;SDS011;27319;50.306;18.926;2023-03-01T06:52:08;100.53;;;46.42;;
41623;SDS011;27319;50.306;18.926;2023-03-01T06:56:09;99.70;;;44.78;;
41623;SDS011;27319;50.306;18.926;2023-03-01T07:00:10;91.93;;;43.53;;
41623;SDS011;27319;50.306;18.926;2023-03-01T07:03:11;105.05;;;46.03;;
41623;SDS011;27319;50.306;18.926;2023-03-01T07:07:12;99.35;;;48.15;;
41623;SDS011;27319;50.306;18.926;2023-03-01T07:10:13;104.85;;;45.63;;
41623;SDS011;27319;50.306;18.926;2023-03-01T07:14:14;98.82;;;45.15;;
41623;SDS011;27319;50.306;18.926;2023-03-01T07:17:15;104.65;;;47.80;;
41623;SDS011;27319;50.306;18.926;2023-03-01T07:20:19;107.70;;;52.42;;
41623;SDS011;27319;50.306;18.926;2023-03-01T07:24:20;112.63;;;49.58;;
41623;SDS011;27319;50.306;18.926;2023-03-01T07:28:24;111.75;;;51.08;;
41623;SDS011;27319;50.306;18.926;2023-03-01T07:32:25;115.68;;;54.30;;
41623;SDS011;27319;50.306;18.926;2023-03-01T07:36:26;120.53;;;54.78;;
41623;SDS011;27319;50.306;18.926;2023-03-01T07:39:26;112.35;;;55.20;;
41623;SDS011;27319;50.306;18.926;2023-03-01T07:43:30;112.03;;;53.17;;
41623;SDS011;27319;50.306;18.926;2023-03-01T07:47:31;129.18;;;57.40;;
41623;SDS011;27319;50.306;18.926;2023-03-01T07:51:32;150.10;;;59.03;;
41623;SDS011;27319;50.306;18.926;2023-03-01T07:55:33;116.28;;;55.65;;
41623;SDS011;27319;50.306;18.926;2023-03-01T07:59:40;108.22;;;51.08;;
41623;SDS011;27319;50.306;18.926;2023-03-01T08:03:41;99.05;;;47.22;;
41623;SDS011;27319;50.306;18.926;2023-03-01T08:07:42;108.03;;;50.70;;
41623;SDS011;27319;50.306;18.926;2023-03-01T08:11:42;104.55;;;51.95;;
41623;SDS011;27319;50.306;18.926;2023-03-01T08:15:43;122.13;;;58.05;;
41623;SDS011;27319;50.306;18.926;2023-03-01T08:19:44;112.85;;;50.30;;
41623;SDS011;27319;50.306;18.926;2023-03-01T08:23:45;88.75;;;39.13;;
41623;SDS011;27319;50.306;18.926;2023-03-01T08:27:46;81.03;;;38.83;;
41623;SDS011;27319;50.306;18.926;2023-03-01T08:31:47;74.88;;;36.65;;
41623;SDS011;27319;50.306;18.926;2023-03-01T08:35:12;76.57;;;36.63;;
41623;SDS011;27319;50.306;18.926;2023-03-01T08:38:13;61.42;;;28.95;;
41623;SDS011;27319;50.306;18.926;2023-03-01T08:42:13;63.08;;;29.05;;
41623;SDS011;27319;50.306;18.926;2023-03-01T08:46:14;48.33;;;24.08;;
41623;SDS011;27319;50.306;18.926;2023-03-01T08:50:15;37.78;;;19.83;;
41623;SDS011;27319;50.306;18.926;2023-03-01T08:54:17;51.30;;;24.42;;
41623;SDS011;27319;50.306;18.926;2023-03-01T08:58:17;50.05;;;22.85;;
41623;SDS011;27319;50.306;18.926;2023-03-01T09:02:18;50.90;;;24.55;;
41623;SDS011;27319;50.306;18.926;2023-03-01T09:05:19;50.67;;;26.35;;
41623;SDS011;27319;50.306;18.926;2023-03-01T09:08:20;42.78;;;20.70;;
41623;SDS011;27319;50.306;18.926;2023-03-01T09:11:21;35.83;;;18.08;;
41623;SDS011;27319;50.306;18.926;2023-03-01T09:15:21;34.28;;;18.25;;
41623;SDS011;27319;50.306;18.926;2023-03-01T09:19:22;29.25;;;14.70;;
41623;SDS011;27319;50.306;18.926;2023-03-01T09:23:23;31.92;;;17.58;;
41623;SDS011;27319;50.306;18.926;2023-03-01T09:27:24;38.35;;;18.35;;
41623;SDS011;27319;50.306;18.926;2023-03-01T09:31:25;31.10;;;15.05;;
41623;SDS011;27319;50.306;18.926;2023-03-01T09:34:26;48.35;;;20.63;;
41623;SDS011;27319;50.306;18.926;2023-03-01T09:37:27;25.00;;;14.55;;
41623;SDS011;27319;50.306;18.926;2023-03-01T09:45:34;41.35;;;16.85;;
41623;SDS011;27319;50.306;18.926;2023-03-01T09:49:35;36.85;;;17.50;;
41623;SDS011;27319;50.306;18.926;2023-03-01T09:53:10;36.53;;;19.08;;
41623;SDS011;27319;50.306;18.926;2023-03-01T10:00:59;34.15;;;17.08;;
41623;SDS011;27319;50.306;18.926;2023-03-01T10:04:48;34.83;;;14.68;;
41623;SDS011;27319;50.306;18.926;2023-03-01T10:11:32;32.20;;;15.32;;
41623;SDS011;27319;50.306;18.926;2023-03-01T10:15:34;32.05;;;17.08;;
41623;SDS011;27319;50.306;18.926;2023-03-01T10:19:36;41.15;;;17.27;;
41623;SDS011;27319;50.306;18.926;2023-03-01T10:23:34;40.25;;;17.52;;
41623;SDS011;27319;50.306;18.926;2023-03-01T10:27:43;37.30;;;15.93;;
41623;SDS011;27319;50.306;18.926;2023-03-01T10:31:51;38.30;;;17.58;;
41623;SDS011;27319;50.306;18.926;2023-03-01T10:35:51;34.72;;;15.80;;
41623;SDS011;27319;50.306;18.926;2023-03-01T10:43:00;39.58;;;16.58;;
41623;SDS011;27319;50.306;18.926;2023-03-01T10:46:43;48.88;;;20.20;;
41623;SDS011;27319;50.306;18.926;2023-03-01T10:50:45;31.35;;;17.27;;
41623;SDS011;27319;50.306;18.926;2023-03-01T10:54:52;31.85;;;15.55;;
41623;SDS011;27319;50.306;18.926;2023-03-01T11:02:13;29.85;;;14.73;;
41623;SDS011;27319;50.306;18.926;2023-03-01T11:21:09;28.75;;;13.68;;
41623;SDS011;27319;50.306;18.926;2023-03-01T11:25:11;29.10;;;13.30;;
41623;SDS011;27319;50.306;18.926;2023-03-01T11:29:32;30.70;;;14.48;;
41623;SDS011;27319;50.306;18.926;2023-03-01T11:37:10;29.05;;;12.93;;
41623;SDS011;27319;50.306;18.926;2023-03-01T11:40:27;19.38;;;11.25;;
41623;SDS011;27319;50.306;18.926;2023-03-01T11:47:27;20.42;;;11.63;;
41623;SDS011;27319;50.306;18.926;2023-03-01T11:58:45;20.05;;;10.68;;
41623;SDS011;27319;50.306;18.926;2023-03-01T12:06:50;20.42;;;10.65;;
41623;SDS011;27319;50.306;18.926;2023-03-01T12:13:23;24.65;;;10.20;;
41623;SDS011;27319;50.306;18.926;2023-03-01T12:17:02;20.90;;;9.68;;
41623;SDS011;27319;50.306;18.926;2023-03-01T12:20:58;19.88;;;11.18;;
41623;SDS011;27319;50.306;18.926;2023-03-01T12:32:15;36.58;;;11.90;;
41623;SDS011;27319;50.306;18.926;2023-03-01T12:49:45;22.42;;;11.93;;
41623;SDS011;27319;50.306;18.926;2023-03-01T12:52:51;29.85;;;13.00;;
41623;SDS011;27319;50.306;18.926;2023-03-01T12:55:58;21.65;;;12.45;;
41623;SDS011;27319;50.306;18.926;2023-03-01T12:59:05;20.13;;;11.55;;
41623;SDS011;27319;50.306;18.926;2023-03-01T13:02:19;18.42;;;10.25;;
41623;SDS011;27319;50.306;18.926;2023-03-01T13:05:34;19.45;;;10.90;;
41623;SDS011;27319;50.306;18.926;2023-03-01T13:08:49;24.20;;;12.02;;
41623;SDS011;27319;50.306;18.926;2023-03-01T13:16:19;19.70;;;11.32;;
41623;SDS011;27319;50.306;18.926;2023-03-01T13:24:03;17.90;;;10.80;;
41623;SDS011;27319;50.306;18.926;2023-03-01T13:33:55;15.18;;;9.07;;
41623;SDS011;27319;50.306;18.926;2023-03-01T13:37:47;18.70;;;9.55;;
41623;SDS011;27319;50.306;18.926;2023-03-01T13:43:52;20.35;;;10.00;;
41623;SDS011;27319;50.306;18.926;2023-03-01T13:47:36;20.80;;;9.00;;
41623;SDS011;27319;50.306;18.926;2023-03-01T13:51:37;17.30;;;9.95;;
41623;SDS011;27319;50.306;18.926;2023-03-01T13:55:40;18.95;;;10.30;;
41623;SDS011;27319;50.306;18.926;2023-03-01T13:59:46;19.90;;;9.98;;
41623;SDS011;27319;50.306;18.926;2023-03-01T14:03:40;18.60;;;11.40;;
41623;SDS011;27319;50.306;18.926;2023-03-01T14:07:40;18.95;;;10.30;;
41623;SDS011;27319;50.306;18.926;2023-03-01T14:15:50;20.23;;;11.30;;
41623;SDS011;27319;50.306;18.926;2023-03-01T14:19:48;19.52;;;10.93;;
41623;SDS011;27319;50.306;18.926;2023-03-01T14:23:49;20.25;;;10.05;;
41623;SDS011;27319;50.306;18.926;2023-03-01T14:27:56;17.30;;;9.57;;
41623;SDS011;27319;50.306;18.926;2023-03-01T14:32:08;16.30;;;9.35;;
41623;SDS011;27319;50.306;18.926;2023-03-01T14:35:29;19.02;;;9.60;;
41623;SDS011;27319;50.306;18.926;2023-03-01T14:39:34;18.60;;;10.43;;
41623;SDS011;27319;50.306;18.926;2023-03-01T14:43:35;19.77;;;10.63;;
41623;SDS011;27319;50.306;18.926;2023-03-01T14:47:37;18.92;;;10.30;;
41623;SDS011;27319;50.306;18.926;2023-03-01T14:51:37;22.83;;;11.27;;
41623;SDS011;27319;50.306;18.926;2023-03-01T14:55:41;17.70;;;9.68;;
41623;SDS011;27319;50.306;18.926;2023-03-01T14:59:41;19.00;;;10.75;;
41623;SDS011;27319;50.306;18.926;2023-03-01T15:03:43;21.02;;;10.73;;
41623;SDS011;27319;50.306;18.926;2023-03-01T15:07:43;22.42;;;11.32;;
41623;SDS011;27319;50.306;18.926;2023-03-01T15:11:44;19.23;;;11.43;;
41623;SDS011;27319;50.306;18.926;2023-03-01T15:15:45;20.10;;;10.82;;
41623;SDS011;27319;50.306;18.926;2023-03-01T15:19:49;25.00;;;11.63;;
41623;SDS011;27319;50.306;18.926;2023-03-01T15:23:57;21.17;;;11.90;;
41623;SDS011;27319;50.306;18.926;2023-03-01T15:27:57;27.20;;;12.07;;
41623;SDS011;27319;50.306;18.926;2023-03-01T15:32:22;26.38;;;12.93;;
41623;SDS011;27319;50.306;18.926;2023-03-01T15:40:28;30.30;;;14.02;;
41623;SDS011;27319;50.306;18.926;2023-03-01T15:44:30;23.25;;;12.75;;
41623;SDS011;27319;50.306;18.926;2023-03-01T15:48:29;22.50;;;12.73;;
41623;SDS011;27319;50.306;18.926;2023-03-01T15:52:35;26.00;;;12.98;;
41623;SDS011;27319;50.306;18.926;2023-03-01T15:56:37;23.45;;;13.23;;
41623;SDS011;27319;50.306;18.926;2023-03-01T16:00:38;29.25;;;12.60;;
41623;SDS011;27319;50.306;18.926;2023-03-01T16:04:39;24.02;;;12.80;;
41623;SDS011;27319;50.306;18.926;2023-03-01T16:08:39;24.13;;;11.48;;
41623;SDS011;27319;50.306;18.926;2023-03-01T16:12:40;22.90;;;12.20;;
41623;SDS011;27319;50.306;18.926;2023-03-01T16:16:41;22.17;;;12.07;;
41623;SDS011;27319;50.306;18.926;2023-03-01T16:19:42;26.48;;;13.60;;
41623;SDS011;27319;50.306;18.926;2023-03-01T16:23:43;29.98;;;14.48;;
41623;SDS011;27319;50.306;18.926;2023-03-01T16:27:45;23.60;;;13.60;;
41623;SDS011;27319;50.306;18.926;2023-03-01T16:31:45;29.40;;;13.45;;
41623;SDS011;27319;50.306;18.926;2023-03-01T16:35:25;29.30;;;13.55;;
41623;SDS011;27319;50.306;18.926;2023-03-01T16:38:27;34.58;;;16.05;;
41623;SDS011;27319;50.306;18.926;2023-03-01T16:41:28;31.65;;;15.52;;
41623;SDS011;27319;50.306;18.926;2023-03-01T16:44:29;39.45;;;17.77;;
41623;SDS011;27319;50.306;18.926;2023-03-01T16:47:30;38.42;;;17.58;;
41623;SDS011;27319;50.306;18.926;2023-03-01T16:50:31;46.63;;;18.60;;
41623;SDS011;27319;50.306;18.926;2023-03-01T16:54:35;36.33;;;18.20;;
41623;SDS011;27319;50.306;18.926;2023-03-01T16:57:36;36.97;;;18.08;;
41623;SDS011;27319;50.306;18.926;2023-03-01T17:00:38;39.92;;;21.13;;
41623;SDS011;27319;50.306;18.926;2023-03-01T17:04:39;50.15;;;22.70;;
41623;SDS011;27319;50.306;18.926;2023-03-01T17:08:39;52.13;;;24.35;;
41623;SDS011;27319;50.306;18.926;2023-03-01T17:11:41;52.05;;;25.65;;
41623;SDS011;27319;50.306;18.926;2023-03-01T17:14:42;62.47;;;28.65;;
41623;SDS011;27319;50.306;18.926;2023-03-01T17:17:43;57.47;;;27.88;;
41623;SDS011;27319;50.306;18.926;2023-03-01T17:20:44;62.92;;;26.25;;
41623;SDS011;27319;50.306;18.926;2023-03-01T17:23:45;56.53;;;26.75;;
41623;SDS011;27319;50.306;18.926;2023-03-01T17:26:49;53.50;;;24.58;;
41623;SDS011;27319;50.306;18.926;2023-03-01T17:29:50;53.63;;;25.60;;
41623;SDS011;27319;50.306;18.926;2023-03-01T17:32:51;44.40;;;23.75;;
41623;SDS011;27319;50.306;18.926;2023-03-01T17:35:55;51.85;;;25.05;;
41623;SDS011;27319;50.306;18.926;2023-03-01T17:38:56;46.90;;;24.83;;
41623;SDS011;27319;50.306;18.926;2023-03-01T17:42:57;49.03;;;25.50;;
41623;SDS011;27319;50.306;18.926;2023-03-01T17:46:58;54.47;;;28.05;;
41623;SDS011;27319;50.306;18.926;2023-03-01T17:50:59;60.25;;;29.48;;
41623;SDS011;27319;50.306;18.926;2023-03-01T17:54:40;56.42;;;29.10;;
41623;SDS011;27319;50.306;18.926;2023-03-01T17:58:41;58.58;;;29.90;;
41623;SDS011;27319;50.306;18.926;2023-03-01T18:02:42;62.13;;;31.38;;
41623;SDS011;27319;50.306;18.926;2023-03-01T18:06:43;64.43;;;30.83;;
41623;SDS011;27319;50.306;18.926;2023-03-01T18:09:43;60.75;;;31.30;;
41623;SDS011;27319;50.306;18.926;2023-03-01T18:13:44;70.38;;;34.22;;
41623;SDS011;27319;50.306;18.926;2023-03-01T18:17:48;72.38;;;36.03;;
41623;SDS011;27319;50.306;18.926;2023-03-01T18:21:49;76.60;;;38.42;;
41623;SDS011;27319;50.306;18.926;2023-03-01T18:25:50;77.57;;;36.80;;
41623;SDS011;27319;50.306;18.926;2023-03-01T18:29:51;77.80;;;35.90;;
41623;SDS011;27319;50.306;18.926;2023-03-01T18:33:52;73.80;;;37.17;;
41623;SDS011;27319;50.306;18.926;2023-03-01T18:37:53;75.70;;;36.83;;
41623;SDS011;27319;50.306;18.926;2023-03-01T18:41:53;81.35;;;37.53;;
41623;SDS011;27319;50.306;18.926;2023-03-01T18:45:55;81.63;;;38.83;;
41623;SDS011;27319;50.306;18.926;2023-03-01T18:49:15;82.80;;;41.13;;
41623;SDS011;27319;50.306;18.926;2023-03-01T18:53:16;82.78;;;38.08;;
41623;SDS011;27319;50.306;18.926;2023-03-01T18:56:33;89.40;;;41.90;;
41623;SDS011;27319;50.306;18.926;2023-03-01T19:00:34;88.45;;;42.90;;
41623;SDS011;27319;50.306;18.926;2023-03-01T19:03:35;97.63;;;43.78;;
41623;SDS011;27319;50.306;18.926;2023-03-01T19:07:04;91.32;;;43.55;;
41623;SDS011;27319;50.306;18.926;2023-03-01T19:10:05;98.72;;;46.08;;
41623;SDS011;27319;50.306;18.926;2023-03-01T19:13:09;101.55;;;48.97;;
41623;SDS011;27319;50.306;18.926;2023-03-01T19:16:14;100.38;;;48.35;;
41623;SDS011;27319;50.306;18.926;2023-03-01T19:19:17;112.57;;;49.40;;
41623;SDS011;27319;50.306;18.926;2023-03-01T19:23:18;110.38;;;51.70;;
41623;SDS011;27319;50.306;18.926;2023-03-01T19:27:19;125.63;;;57.20;;
41623;SDS011;27319;50.306;18.926;2023-03-01T19:31:21;129.27;;;59.22;;
41623;SDS011;27319;50.306;18.926;2023-03-01T19:35:20;139.23;;;63.55;;
41623;SDS011;27319;50.306;18.926;2023-03-01T19:39:21;135.23;;;62.17;;
41623;SDS011;27319;50.306;18.926;2023-03-01T19:43:22;125.47;;;60.03;;
41623;SDS011;27319;50.306;18.926;2023-03-01T19:47:22;128.63;;;61.22;;
41623;SDS011;27319;50.306;18.926;2023-03-01T19:51:23;145.77;;;64.50;;
41623;SDS011;27319;50.306;18.926;2023-03-01T19:54:24;146.43;;;65.95;;
41623;SDS011;27319;50.306;18.926;2023-03-01T19:58:29;154.60;;;71.35;;
41623;SDS011;27319;50.306;18.926;2023-03-01T20:02:29;196.27;;;83.72;;
41623;SDS011;27319;50.306;18.926;2023-03-01T20:06:29;179.95;;;79.53;;
41623;SDS011;27319;50.306;18.926;2023-03-01T20:09:30;173.40;;;79.00;;
41623;SDS011;27319;50.306;18.926;2023-03-01T20:12:31;161.73;;;74.45;;
41623;SDS011;27319;50.306;18.926;2023-03-01T20:16:32;171.48;;;77.82;;
41623;SDS011;27319;50.306;18.926;2023-03-01T20:20:33;175.85;;;76.45;;
41623;SDS011;27319;50.306;18.926;2023-03-01T20:24:34;176.02;;;78.07;;
41623;SDS011;27319;50.306;18.926;2023-03-01T20:28:35;166.63;;;73.30;;
41623;SDS011;27319;50.306;18.926;2023-03-01T20:32:35;161.82;;;73.25;;
41623;SDS011;27319;50.306;18.926;2023-03-01T20:36:36;166.32;;;72.03;;
41623;SDS011;27319;50.306;18.926;2023-03-01T20:39:38;164.30;;;70.15;;
41623;SDS011;27319;50.306;18.926;2023-03-01T20:43:40;164.77;;;72.60;;
41623;SDS011;27319;50.306;18.926;2023-03-01T20:46:52;188.02;;;79.47;;
41623;SDS011;27319;50.306;18.926;2023-03-01T20:50:55;248.18;;;102.88;;
41623;SDS011;27319;50.306;18.926;2023-03-01T20:54:55;286.73;;;109.95;;
41623;SDS011;27319;50.306;18.926;2023-03-01T20:58:33;280.13;;;107.72;;
41623;SDS011;27319;50.306;18.926;2023-03-01T21:02:34;246.52;;;94.65;;
41623;SDS011;27319;50.306;18.926;2023-03-01T21:05:37;227.82;;;90.97;;
41623;SDS011;27319;50.306;18.926;2023-03-01T21:08:39;190.70;;;82.60;;
41623;SDS011;27319;50.306;18.926;2023-03-01T21:11:40;192.88;;;81.97;;
41623;SDS011;27319;50.306;18.926;2023-03-01T21:14:41;199.98;;;84.32;;
41623;SDS011;27319;50.306;18.926;2023-03-01T21:17:41;194.02;;;85.68;;
41623;SDS011;27319;50.306;18.926;2023-03-01T21:20:42;196.70;;;88.63;;
41623;SDS011;27319;50.306;18.926;2023-03-01T21:23:43;206.45;;;93.22;;
41623;SDS011;27319;50.306;18.926;2023-03-01T21:27:24;195.98;;;89.82;;
41623;SDS011;27319;50.306;18.926;2023-03-01T21:30:25;199.85;;;88.55;;
41623;SDS011;27319;50.306;18.926;2023-03-01T21:33:26;205.15;;;90.13;;
41623;SDS011;27319;50.306;18.926;2023-03-01T21:36:27;201.90;;;91.43;;
41623;SDS011;27319;50.306;18.926;2023-03-01T21:39:28;189.85;;;85.57;;
41623;SDS011;27319;50.306;18.926;2023-03-01T21:42:29;180.07;;;86.10;;
41623;SDS011;27319;50.306;18.926;2023-03-01T21:45:33;202.00;;;88.18;;
41623;SDS011;27319;50.306;18.926;2023-03-01T21:48:34;190.18;;;85.63;;
41623;SDS011;27319;50.306;18.926;2023-03-01T21:51:35;199.50;;;89.97;;
41623;SDS011;27319;50.306;18.926;2023-03-01T21:54:36;208.50;;;91.40;;
41623;SDS011;27319;50.306;18.926;2023-03-01T21:57:37;210.27;;;90.43;;
41623;SDS011;27319;50.306;18.926;2023-03-01T22:00:43;212.65;;;95.53;;
41623;SDS011;27319;50.306;18.926;2023-03-01T22:03:45;211.63;;;91.22;;
41623;SDS011;27319;50.306;18.926;2023-03-01T22:06:46;212.30;;;91.25;;
41623;SDS011;27319;50.306;18.926;2023-03-01T22:09:47;216.65;;;93.40;;
41623;SDS011;27319;50.306;18.926;2023-03-01T22:12:48;194.68;;;90.10;;
41623;SDS011;27319;50.306;18.926;2023-03-01T22:15:49;193.60;;;87.80;;
41623;SDS011;27319;50.306;18.926;2023-03-01T22:18:50;195.60;;;85.40;;
41623;SDS011;27319;50.306;18.926;2023-03-01T22:21:52;187.23;;;85.30;;
41623;SDS011;27319;50.306;18.926;2023-03-01T22:24:52;189.15;;;81.97;;
41623;SDS011;27319;50.306;18.926;2023-03-01T22:27:54;182.98;;;80.68;;
41623;SDS011;27319;50.306;18.926;2023-03-01T22:31:15;177.68;;;78.65;;
41623;SDS011;27319;50.306;18.926;2023-03-01T22:34:16;169.65;;;79.80;;
41623;SDS011;27319;50.306;18.926;2023-03-01T22:37:18;169.32;;;78.82;;
41623;SDS011;27319;50.306;18.926;2023-03-01T22:40:19;163.55;;;75.80;;
41623;SDS011;27319;50.306;18.926;2023-03-01T22:43:19;162.02;;;73.93;;
41623;SDS011;27319;50.306;18.926;2023-03-01T22:46:21;162.10;;;74.75;;
41623;SDS011;27319;50.306;18.926;2023-03-01T22:49:22;142.50;;;69.10;;